createdAt,value
2023-02-06T00:02:39.777Z,4.42
2023-02-06T00:07:41.287Z,4.41
2023-02-06T00:12:42.757Z,4.38
2023-02-06T00:17:44.321Z,4.36
2023-02-06T00:22:45.798Z,4.35
2023-02-06T00:27:47.306Z,4.39
2023-02-06T00:32:48.877Z,4.34
2023-02-06T00:37:51.034Z,4.35
2023-02-06T00:42:52.550Z,4.32
2023-02-06T00:47:54.122Z,4.27
2023-02-06T00:52:55.685Z,4.25
2023-02-06T00:57:57.176Z,4.17
2023-02-06T01:02:58.813Z,4.09
2023-02-06T01:08:01.479Z,4.11
2023-02-06T01:13:04.326Z,4.13
2023-02-06T01:18:05.875Z,4.08
2023-02-06T01:23:07.445Z,4.05
2023-02-06T01:28:08.990Z,4.04
2023-02-06T01:33:10.474Z,3.96
2023-02-06T01:38:12.018Z,3.88
2023-02-06T01:43:19.393Z,3.83
2023-02-06T01:48:27.162Z,3.79
2023-02-06T01:53:28.739Z,3.70
2023-02-06T01:58:34.907Z,3.58
2023-02-06T02:03:39.552Z,3.53
2023-02-06T02:08:44.263Z,3.39
2023-02-06T02:13:46.246Z,3.41
2023-02-06T02:19:02.827Z,3.30
2023-02-06T02:24:39.196Z,3.25
2023-02-06T02:30:11.454Z,3.33
2023-02-06T02:35:19.789Z,3.40
2023-02-06T02:40:21.228Z,3.33
2023-02-06T02:45:33.461Z,3.32
2023-02-06T02:50:36.452Z,3.29
2023-02-06T02:55:38.210Z,3.25
2023-02-06T03:00:43.989Z,3.18
2023-02-06T03:06:10.272Z,3.12
2023-02-06T03:11:20.521Z,3.05
2023-02-06T03:16:43.494Z,3.04
2023-02-06T03:21:47.415Z,3.01
2023-02-06T03:26:52.472Z,3.00
2023-02-06T03:31:58.143Z,2.97
2023-02-06T03:37:00.250Z,3.00
2023-02-06T03:42:04.518Z,3.04
2023-02-06T03:47:09.208Z,3.08
2023-02-06T03:52:15.501Z,3.07
2023-02-06T03:57:19.354Z,3.09
2023-02-06T04:02:22.685Z,3.13
2023-02-06T04:07:27.428Z,3.11
2023-02-06T04:12:29.068Z,3.18
2023-02-06T04:17:46.496Z,3.19
2023-02-06T04:22:52.264Z,3.27
2023-02-06T04:27:53.940Z,3.31
2023-02-06T04:32:55.553Z,3.38
2023-02-06T04:37:57.120Z,3.42
2023-02-06T04:42:58.655Z,3.39
2023-02-06T04:48:00.155Z,3.44
2023-02-06T04:53:01.701Z,3.42
2023-02-06T04:58:03.263Z,3.41
2023-02-06T05:03:04.727Z,3.45
2023-02-06T05:08:06.240Z,3.49
2023-02-06T05:13:08.084Z,3.53
2023-02-06T05:18:09.623Z,3.53
2023-02-06T05:23:11.129Z,3.45
2023-02-06T05:28:12.692Z,3.44
2023-02-06T05:33:14.474Z,3.44
2023-02-06T05:38:16.049Z,3.43
2023-02-06T05:43:17.857Z,3.41
2023-02-06T05:48:19.376Z,3.41
2023-02-06T05:53:20.908Z,3.43
2023-02-06T05:58:22.570Z,3.43
2023-02-06T06:03:24.205Z,3.41
2023-02-06T06:08:25.786Z,3.40
2023-02-06T06:13:27.380Z,3.35
2023-02-06T06:18:29.001Z,3.39
2023-02-06T06:23:30.540Z,3.42
2023-02-06T06:28:32.103Z,3.47
2023-02-06T06:33:34.431Z,3.50
2023-02-06T06:38:35.957Z,3.51
2023-02-06T06:43:37.737Z,3.44
2023-02-06T06:48:40.222Z,3.53
2023-02-06T06:53:41.776Z,3.55
2023-02-06T06:58:43.337Z,3.54
2023-02-06T07:03:45.370Z,3.51
2023-02-06T07:08:46.890Z,3.50
2023-02-06T07:13:48.371Z,3.49
2023-02-06T07:18:49.840Z,3.47
2023-02-06T07:23:51.349Z,3.49
2023-02-06T07:28:52.865Z,3.51
2023-02-06T07:33:54.324Z,3.44
2023-02-06T07:38:56.167Z,3.49
2023-02-06T07:43:57.703Z,3.55
2023-02-06T07:48:59.188Z,3.61
2023-02-06T07:54:00.663Z,3.67
2023-02-06T07:59:02.452Z,3.70
2023-02-06T08:04:04.098Z,3.72
2023-02-06T08:09:05.979Z,3.76
2023-02-06T08:14:07.570Z,3.81
2023-02-06T08:19:10.920Z,3.89
2023-02-06T08:24:13.138Z,3.97
2023-02-06T08:29:14.700Z,4.02
2023-02-06T08:34:16.419Z,4.07
2023-02-06T08:39:19.198Z,4.11
2023-02-06T08:44:21.192Z,4.12
2023-02-06T08:49:26.880Z,4.15
2023-02-06T08:54:28.508Z,4.17
2023-02-06T08:59:31.012Z,4.13
2023-02-06T09:04:32.648Z,4.11
2023-02-06T09:09:34.121Z,4.10
2023-02-06T09:14:35.622Z,4.17
2023-02-06T09:19:37.109Z,4.20
2023-02-06T09:24:38.578Z,4.23
2023-02-06T09:29:40.084Z,4.53
2023-02-06T09:34:41.636Z,4.97
2023-02-06T09:39:43.168Z,5.21
2023-02-06T09:44:51.246Z,5.35
2023-02-06T09:49:58.409Z,5.50
2023-02-06T09:55:17.088Z,5.67
2023-02-06T10:00:50.698Z,5.80
2023-02-06T10:06:14.627Z,5.77
2023-02-06T10:11:37.856Z,5.92
2023-02-06T10:16:51.207Z,6.01
2023-02-06T10:22:01.843Z,6.17
2023-02-06T10:27:09.543Z,6.37
2023-02-06T10:32:14.062Z,6.58
2023-02-06T10:37:37.721Z,6.83
2023-02-06T10:42:51.231Z,7.03
2023-02-06T10:48:15.406Z,7.08
2023-02-06T10:53:25.718Z,7.14
2023-02-06T10:58:32.911Z,7.34
2023-02-06T11:03:39.555Z,7.15
2023-02-06T11:08:45.373Z,7.18
2023-02-06T11:13:50.588Z,7.16
2023-02-06T11:18:53.877Z,7.29
2023-02-06T11:24:23.296Z,7.72
2023-02-06T11:29:32.073Z,7.54
2023-02-06T11:34:53.754Z,7.15
2023-02-06T11:40:20.297Z,7.18
2023-02-06T11:45:31.089Z,7.12
2023-02-06T11:50:37.788Z,7.04
2023-02-06T11:55:42.592Z,7.09
2023-02-06T12:00:53.125Z,7.08
2023-02-06T12:05:58.512Z,6.92
2023-02-06T12:11:04.869Z,6.95
2023-02-06T12:16:08.213Z,7.29
2023-02-06T12:22:02.477Z,7.25
2023-02-06T12:27:25.945Z,7.02
2023-02-06T12:32:34.532Z,6.82
2023-02-06T12:37:41.288Z,6.92
2023-02-06T12:42:46.439Z,6.90
2023-02-06T12:48:00.037Z,6.89
2023-02-06T12:53:10.412Z,6.74
2023-02-06T12:58:23.739Z,6.68
2023-02-06T13:03:43.801Z,6.72
2023-02-06T13:08:55.975Z,6.69
2023-02-06T13:14:05.558Z,6.69
2023-02-06T13:19:45.960Z,6.78
2023-02-06T13:24:49.938Z,6.72
2023-02-06T13:29:53.844Z,6.75
2023-02-06T13:35:07.320Z,6.57
2023-02-06T13:40:23.783Z,6.27
2023-02-06T13:45:33.284Z,6.31
2023-02-06T13:50:49.502Z,6.45
2023-02-06T13:56:21.816Z,6.45
2023-02-06T14:01:29.946Z,6.40
2023-02-06T14:07:01.826Z,6.32
2023-02-06T14:12:28.672Z,6.41
2023-02-06T14:17:59.039Z,6.37
2023-02-06T14:23:20.621Z,6.35
2023-02-06T14:28:32.063Z,6.27
2023-02-06T14:34:04.494Z,6.38
2023-02-06T14:39:33.801Z,6.27
2023-02-06T14:44:35.412Z,6.27
2023-02-06T14:49:37.953Z,6.21
2023-02-06T14:54:39.496Z,6.21
2023-02-06T15:00:12.506Z,6.27
2023-02-06T15:05:25.005Z,6.23
2023-02-06T15:10:30.428Z,6.14
2023-02-06T15:15:34.183Z,6.05
2023-02-06T15:20:41.154Z,6.08
2023-02-06T15:26:04.144Z,6.11
2023-02-06T15:31:17.585Z,5.99
2023-02-06T15:36:24.955Z,5.95
2023-02-06T15:41:29.692Z,5.90
2023-02-06T15:46:31.640Z,5.83
2023-02-06T15:51:48.788Z,5.76
2023-02-06T15:56:54.772Z,5.54
2023-02-06T16:01:58.061Z,5.51
2023-02-06T16:07:13.890Z,5.53
2023-02-06T16:12:16.503Z,5.47
2023-02-06T16:17:17.939Z,5.41
2023-02-06T16:22:38.542Z,5.37
2023-02-06T16:27:45.722Z,5.25
2023-02-06T16:32:47.261Z,5.12
2023-02-06T16:37:50.277Z,5.00
2023-02-06T16:42:52.526Z,4.93
2023-02-06T16:47:54.984Z,4.83
2023-02-06T16:53:00.891Z,4.79
2023-02-06T16:58:02.448Z,4.68
2023-02-06T17:03:04.006Z,4.58
2023-02-06T17:08:20.267Z,4.54
2023-02-06T17:13:24.014Z,4.43
2023-02-06T17:18:25.531Z,4.32
2023-02-06T17:23:27.076Z,4.21
2023-02-06T17:28:28.597Z,4.04
2023-02-06T17:33:30.130Z,3.95
2023-02-06T17:38:31.891Z,3.88
2023-02-06T17:43:36.210Z,3.74
2023-02-06T17:48:42.597Z,3.68
2023-02-06T17:53:44.189Z,3.61
2023-02-06T17:58:45.730Z,3.57
2023-02-06T18:03:48.092Z,3.42
2023-02-06T18:08:50.072Z,3.39
2023-02-06T18:14:00.638Z,3.23
2023-02-06T18:19:02.469Z,3.18
2023-02-06T18:24:04.536Z,3.16
2023-02-06T18:29:06.989Z,3.10
2023-02-06T18:34:08.579Z,2.87
2023-02-06T18:39:10.547Z,2.78
2023-02-06T18:44:12.779Z,2.83
2023-02-06T18:49:14.247Z,2.80
2023-02-06T18:54:15.735Z,2.74
2023-02-06T18:59:17.267Z,2.68
2023-02-06T19:04:19.949Z,2.67
2023-02-06T19:09:21.506Z,2.59
2023-02-06T19:14:25.291Z,2.56
2023-02-06T19:19:26.817Z,2.40
2023-02-06T19:24:30.714Z,2.35
2023-02-06T19:29:36.226Z,2.29
2023-02-06T19:34:39.830Z,2.35
2023-02-06T19:39:43.199Z,2.36
2023-02-06T19:44:45.758Z,2.26
2023-02-06T19:49:50.318Z,2.26
2023-02-06T19:54:52.119Z,2.18
2023-02-06T19:59:53.670Z,2.17
2023-02-06T20:04:55.220Z,2.14
2023-02-06T20:09:56.805Z,2.09
2023-02-06T20:15:00.304Z,2.02
2023-02-06T20:20:01.865Z,1.97
2023-02-06T20:25:03.413Z,1.92
2023-02-06T20:30:05.561Z,1.86
2023-02-06T20:35:07.187Z,1.72
2023-02-06T20:40:09.311Z,1.68
2023-02-06T20:45:12.139Z,1.65
2023-02-06T20:50:14.427Z,1.60
2023-02-06T20:55:15.972Z,1.61
2023-02-06T21:00:17.641Z,1.56
2023-02-06T21:05:19.200Z,1.53
2023-02-06T21:10:20.776Z,1.46
2023-02-06T21:15:22.354Z,1.45
2023-02-06T21:20:23.910Z,1.45
2023-02-06T21:25:26.450Z,1.32
2023-02-06T21:30:28.004Z,1.26
2023-02-06T21:35:32.598Z,1.18
2023-02-06T21:40:34.145Z,1.24
2023-02-06T21:45:38.900Z,1.22
2023-02-06T21:50:41.213Z,1.21
2023-02-06T21:55:43.860Z,1.14
2023-02-06T22:00:47.463Z,1.09
2023-02-06T22:05:49.133Z,1.06
2023-02-06T22:10:50.706Z,1.03
2023-02-06T22:15:52.589Z,1.05
2023-02-06T22:21:06.769Z,1.06
2023-02-06T22:26:10.062Z,1.18
2023-02-06T22:31:16.311Z,1.11
2023-02-06T22:36:21.602Z,0.93
2023-02-06T22:41:23.390Z,0.84
2023-02-06T22:46:30.666Z,0.80
2023-02-06T22:51:32.422Z,0.76
2023-02-06T22:56:37.380Z,0.72
2023-02-06T23:01:56.294Z,0.67
2023-02-06T23:06:57.832Z,0.59
2023-02-06T23:12:01.031Z,0.58
2023-02-06T23:17:03.875Z,0.69
2023-02-06T23:22:05.779Z,0.69
2023-02-06T23:27:07.723Z,0.67
2023-02-06T23:32:09.205Z,0.67
2023-02-06T23:37:10.714Z,0.67
2023-02-06T23:42:12.240Z,0.63
2023-02-06T23:47:13.776Z,0.49
2023-02-06T23:52:15.312Z,-0.06
2023-02-06T23:57:16.835Z,-0.52
